Frankford, Minnesota
Current Conditions -  °F | °C
As of 8:54 AM on Thursday 30 Oct 2014 (Local Time) from KRST Reporting Station
Overcast Overcast  
Wind Chill: 32°   Ceiling: 7000
Heat Index: 38°   Visibility: 8mi
Dew Point: 34°   Wind: 8mph
Humidity: 86%   Direction: 180°S
Pressure: 30.06"   Gusts: NA
Location:  43.7143°N, 92.5748°W
Report Text: KRST 301354Z 18007KT 8SM OVC070 03/01 A3006 RMK AO2 SLP191 T00330011
Loading
Personal Weather Stations






























Interactive Weather Map
Tropical Storm Tracking
New forecast layout! Learn more

10-Day Weather Forecast

Advertisements
Track Severe Weather on mobile